Time;durP1;ratioP1;P1;durP2;ratioP2;P2;SDS_P1;SDS_P2;PMS_P1;PMS_P2;Temp;Humidity;BMP_temperature;BMP_pressure;BME280_temperature;BME280_humidity;BME280_pressure;Samples;Min_cycle;Max_cycle;Signal;HPM_P1;HPM_P2
2022/05/15 00:01:15;;;;;;;;;;;;;;;21.83;59.00;100979.38;4950261;29;19915;-83
2022/05/15 00:04:00;;;;;;;;;;;;;;;21.72;59.38;100982.84;4958338;28;19915;-83
2022/05/15 00:06:45;;;;;;;;;;;;;;;21.52;59.95;100987.03;4956660;28;20362;-83
2022/05/15 00:09:29;;;;;;;;;;;;;;;21.50;60.07;100981.09;4954910;28;20305;-83
2022/05/15 00:12:16;;;;;;;;;;;;;;;21.48;60.03;100989.00;4960758;28;19919;-81
2022/05/15 00:15:00;;;;;;;;;;;;;;;21.57;59.35;100986.69;4953624;28;20005;-81
2022/05/15 00:17:45;;;;;;;;;;;;;;;21.42;59.70;100986.94;4937838;29;19914;-81
2022/05/15 00:20:30;;;;;;;;;;;;;;;21.34;59.44;100983.31;4955745;28;19914;-83
2022/05/15 00:23:14;;;;;;;;;;;;;;;21.39;59.69;100982.16;4956172;28;19915;-84
2022/05/15 00:26:01;;;;;;;;;;;;;;;21.32;60.07;100988.44;4959685;28;20369;-84
2022/05/15 00:28:45;;;;;;;;;;;;;;;21.39;59.70;100980.19;4951110;28;20458;-84
2022/05/15 00:31:30;;;;;;;;;;;;;;;21.47;59.79;100984.63;4948829;29;19919;-83
2022/05/15 00:34:14;;;;;;;;;;;;;;;21.47;59.56;100984.63;4959898;28;20298;-84
2022/05/15 00:36:59;;;;;;;;;;;;;;;21.43;59.75;100986.56;4960865;28;20293;-84
2022/05/15 00:39:44;;;;;;;;;;;;;;;21.44;59.47;100985.38;4951918;28;19914;-83
2022/05/15 00:42:28;;;;;;;;;;;;;;;21.42;59.59;100978.66;4951923;28;19915;-84
2022/05/15 00:45:14;;;;;;;;;;;;;;;21.38;59.84;100980.59;4954532;28;19915;-84
2022/05/15 00:47:59;;;;;;;;;;;;;;;21.33;59.98;100984.50;4961097;28;19914;-84
2022/05/15 00:50:44;;;;;;;;;;;;;;;21.33;59.99;100987.28;4960217;28;19918;-84
2022/05/15 00:53:29;;;;;;;;;;;;;;;21.38;60.32;100997.19;4964706;28;19915;-83
2022/05/15 00:56:15;;;;;;;;;;;;;;;21.51;59.71;100990.97;4953296;28;19914;-84
2022/05/15 00:59:04;;;;;;;;;;;;;;;21.81;59.07;100990.81;4955604;29;19915;-85
2022/05/15 01:01:48;;;;;;;;;;;;;;;22.00;58.30;100987.00;4954075;28;19914;-84
2022/05/15 01:04:33;;;;;;;;;;;;;;;22.06;57.55;100977.97;4960907;28;19914;-84
2022/05/15 01:07:17;;;;;;;;;;;;;;;21.98;57.63;100987.41;4958842;28;19918;-83
2022/05/15 01:10:03;;;;;;;;;;;;;;;21.93;58.06;100981.41;4960689;28;19915;-84
2022/05/15 01:12:49;;;;;;;;;;;;;;;21.85;58.00;100983.31;4963556;28;19918;-83
2022/05/15 01:15:36;;;;;;;;;;;;;;;21.96;57.86;100981.47;4957188;28;19914;-84
2022/05/15 01:18:22;;;;;;;;;;;;;;;21.99;57.57;100980.69;4953322;28;19915;-83
2022/05/15 01:21:22;;;;;;;;;;;;;;;22.00;57.42;100982.25;4956953;28;19937;-84
2022/05/15 01:24:08;;;;;;;;;;;;;;;21.97;57.65;100980.28;4949258;29;19918;-84
2022/05/15 01:26:53;;;;;;;;;;;;;;;22.11;57.31;100990.66;4956083;29;20317;-84
2022/05/15 01:29:45;;;;;;;;;;;;;;;22.27;56.96;100982.03;4958610;28;19915;-84
2022/05/15 01:32:32;;;;;;;;;;;;;;;22.28;56.66;100984.41;4955268;28;20309;-84
2022/05/15 01:35:20;;;;;;;;;;;;;;;22.18;56.73;100985.97;4952355;28;19915;-83
2022/05/15 01:38:06;;;;;;;;;;;;;;;22.30;56.64;100986.81;4957858;28;20374;-84
2022/05/15 01:40:51;;;;;;;;;;;;;;;22.41;56.05;100990.41;4954304;28;20389;-82
2022/05/15 01:43:38;;;;;;;;;;;;;;;22.44;55.68;100993.22;4960855;29;19918;-83
2022/05/15 01:46:24;;;;;;;;;;;;;;;22.50;55.92;100988.09;4957425;29;19915;-84
2022/05/15 01:49:09;;;;;;;;;;;;;;;22.43;55.47;100985.28;4955924;29;20385;-84
2022/05/15 01:51:56;;;;;;;;;;;;;;;22.23;56.31;100992.31;4960245;28;19918;-85
2022/05/15 01:54:41;;;;;;;;;;;;;;;22.10;56.04;100989.84;4956985;28;19915;-85
2022/05/15 01:57:27;;;;;;;;;;;;;;;21.98;56.79;100990.19;4956124;28;19919;-85
2022/05/15 02:00:19;;;;;;;;;;;;;;;21.88;57.02;100988.09;4962064;28;19940;-83
2022/05/15 02:03:06;;;;;;;;;;;;;;;21.87;57.09;100989.28;4953635;28;19918;-83
2022/05/15 02:05:51;;;;;;;;;;;;;;;21.98;56.84;100981.88;4958375;28;19914;-84
2022/05/15 02:08:36;;;;;;;;;;;;;;;22.12;56.59;100986.69;4962403;28;20370;-84
2022/05/15 02:11:21;;;;;;;;;;;;;;;22.29;56.34;100976.91;4953905;28;19919;-83
2022/05/15 02:14:06;;;;;;;;;;;;;;;22.31;55.73;100978.09;4964531;28;19915;-82
2022/05/15 02:16:51;;;;;;;;;;;;;;;22.42;55.58;100969.84;4958034;29;19914;-82
2022/05/15 02:19:36;;;;;;;;;;;;;;;22.53;55.39;100971.47;4960553;28;19918;-82
2022/05/15 02:22:20;;;;;;;;;;;;;;;22.44;55.26;100968.28;4962135;28;19914;-82
2022/05/15 02:25:08;;;;;;;;;;;;;;;22.54;54.83;100972.28;4948458;28;19915;-83
2022/05/15 02:27:58;;;;;;;;;;;;;;;22.49;55.14;100967.91;4957829;29;19914;-82
2022/05/15 02:30:43;;;;;;;;;;;;;;;22.38;55.71;100961.50;4957710;28;19915;-82
2022/05/15 02:33:27;;;;;;;;;;;;;;;22.50;55.56;100960.38;4961012;28;19915;-82
2022/05/15 02:36:12;;;;;;;;;;;;;;;22.55;55.30;100963.53;4938102;29;19919;-82
2022/05/15 02:38:57;;;;;;;;;;;;;;;22.62;55.23;100971.09;4938840;29;20368;-83
2022/05/15 02:41:44;;;;;;;;;;;;;;;22.65;54.77;100962.00;4938904;29;19928;-83
2022/05/15 02:44:29;;;;;;;;;;;;;;;22.61;55.15;100969.50;4957271;28;19915;-83
2022/05/15 02:47:13;;;;;;;;;;;;;;;22.63;54.70;100971.91;4957424;28;19914;-83
2022/05/15 02:53:01;;;;;;;;;;;;;;;22.78;54.35;100971.59;4958614;28;19918;-81
2022/05/15 02:55:46;;;;;;;;;;;;;;;22.75;54.28;100969.59;4973300;23;20573;-80
2022/05/15 02:58:30;;;;;;;;;;;;;;;22.76;54.49;100971.16;4959406;28;19922;-79
2022/05/15 03:01:15;;;;;;;;;;;;;;;22.80;54.28;100972.00;4969040;28;19914;-80
2022/05/15 03:04:00;;;;;;;;;;;;;;;22.79;54.29;100970.41;4965766;28;19970;-80
2022/05/15 03:06:45;;;;;;;;;;;;;;;22.76;54.54;100973.94;4942631;28;19915;-80
2022/05/15 03:09:30;;;;;;;;;;;;;;;22.79;54.35;100967.63;4953931;28;19914;-80
2022/05/15 03:12:14;;;;;;;;;;;;;;;22.72;54.69;100964.81;4948109;28;19919;-79
2022/05/15 03:14:59;;;;;;;;;;;;;;;22.62;54.89;100957.22;4942856;29;19914;-80
2022/05/15 03:17:44;;;;;;;;;;;;;;;22.67;54.80;100967.16;4940012;29;19915;-80
2022/05/15 03:20:28;;;;;;;;;;;;;;;22.76;54.36;100968.41;4940473;29;19914;-77
2022/05/15 03:23:13;;;;;;;;;;;;;;;22.65;54.56;100975.88;4938070;29;19915;-77
2022/05/15 03:25:58;;;;;;;;;;;;;;;22.56;55.21;100967.91;4938657;28;20397;-79
2022/05/15 03:28:43;;;;;;;;;;;;;;;22.56;54.94;100967.09;4941809;28;19915;-80
2022/05/15 03:31:28;;;;;;;;;;;;;;;22.67;54.82;100973.50;4934301;29;19919;-79
2022/05/15 03:34:14;;;;;;;;;;;;;;;22.79;54.55;100970.41;4930193;29;20298;-79
2022/05/15 03:36:59;;;;;;;;;;;;;;;22.78;54.30;100968.81;4939893;29;20316;-79
2022/05/15 03:39:44;;;;;;;;;;;;;;;22.56;54.79;100969.88;4938234;29;19914;-80
2022/05/15 03:42:29;;;;;;;;;;;;;;;22.40;55.35;100966.66;4935774;29;19914;-80
2022/05/15 03:45:13;;;;;;;;;;;;;;;22.34;55.62;100963.47;4934114;29;19914;-77
2022/05/15 03:47:58;;;;;;;;;;;;;;;22.38;55.30;100963.47;4945910;29;19915;-77
2022/05/15 03:50:42;;;;;;;;;;;;;;;22.38;55.64;100966.25;4944907;28;19915;-82
2022/05/15 03:53:27;;;;;;;;;;;;;;;22.42;55.40;100964.28;4940648;29;19919;-82
2022/05/15 03:56:12;;;;;;;;;;;;;;;22.31;55.76;100968.97;4937285;29;19914;-81
2022/05/15 03:58:57;;;;;;;;;;;;;;;22.28;55.74;100959.47;4937811;29;19915;-80
2022/05/15 04:01:41;;;;;;;;;;;;;;;22.23;56.03;100961.81;4936309;29;19918;-79
2022/05/15 04:04:26;;;;;;;;;;;;;;;22.34;55.69;100963.47;4936713;29;19915;-78
2022/05/15 04:07:10;;;;;;;;;;;;;;;22.20;55.92;100968.16;4935457;29;19918;-79
2022/05/15 04:09:55;;;;;;;;;;;;;;;22.28;55.80;100969.78;4940242;29;19914;-80
2022/05/15 04:12:39;;;;;;;;;;;;;;;22.22;55.81;100971.31;4932648;29;19918;-80
2022/05/15 04:15:24;;;;;;;;;;;;;;;22.26;55.63;100969.34;4931348;29;20313;-80
2022/05/15 04:18:09;;;;;;;;;;;;;;;22.17;55.91;100976.06;4945591;28;19914;-77
2022/05/15 04:20:54;;;;;;;;;;;;;;;22.17;55.93;100967.75;4938602;29;20306;-79
2022/05/15 04:23:39;;;;;;;;;;;;;;;22.08;56.28;100981.16;4942333;28;19915;-79
2022/05/15 04:26:24;;;;;;;;;;;;;;;21.92;56.66;100979.81;4931380;29;19914;-81
2022/05/15 04:29:08;;;;;;;;;;;;;;;21.82;57.43;100983.31;4932442;29;19915;-77
2022/05/15 04:31:55;;;;;;;;;;;;;;;21.70;57.70;100984.41;4933457;29;19946;-81
2022/05/15 04:34:40;;;;;;;;;;;;;;;21.58;58.06;100984.72;4957771;28;19915;-80
2022/05/15 04:37:25;;;;;;;;;;;;;;;21.57;58.64;100983.13;4956264;28;19915;-79
2022/05/15 04:40:10;;;;;;;;;;;;;;;21.51;58.71;100984.66;4916614;29;19919;-82
2022/05/15 04:42:54;;;;;;;;;;;;;;;21.51;58.69;100987.41;4933523;29;19915;-79
2022/05/15 04:45:38;;;;;;;;;;;;;;;21.48;59.22;100986.22;4927630;29;19915;-80
2022/05/15 04:48:23;;;;;;;;;;;;;;;21.61;58.70;100981.97;4930923;29;19915;-81
2022/05/15 04:51:07;;;;;;;;;;;;;;;21.75;57.74;100990.38;4941705;28;19915;-81
2022/05/15 04:53:52;;;;;;;;;;;;;;;21.93;57.54;101000.78;4946425;28;19915;-81
2022/05/15 04:56:37;;;;;;;;;;;;;;;21.90;57.51;100999.56;4934548;29;19915;-81
2022/05/15 04:59:21;;;;;;;;;;;;;;;21.92;57.26;101002.78;4956060;28;19918;-80
2022/05/15 05:02:06;;;;;;;;;;;;;;;21.89;57.71;101002.75;4940164;28;19915;-79
2022/05/15 05:04:51;;;;;;;;;;;;;;;21.91;58.12;101003.94;4950097;28;19918;-80
2022/05/15 05:07:35;;;;;;;;;;;;;;;21.84;58.88;101008.66;4942702;28;19922;-78
2022/05/15 05:10:20;;;;;;;;;;;;;;;21.77;59.08;101009.38;4940701;29;20382;-82
2022/05/15 05:13:04;;;;;;;;;;;;;;;21.75;59.12;101011.72;4925201;29;19919;-83
2022/05/15 05:15:49;;;;;;;;;;;;;;;21.80;59.01;101013.34;4938299;29;19915;-81
2022/05/15 05:18:33;;;;;;;;;;;;;;;21.80;59.30;101025.22;4941820;29;20335;-79
2022/05/15 05:21:18;;;;;;;;;;;;;;;21.72;59.66;101013.31;4941290;29;19918;-83
2022/05/15 05:24:02;;;;;;;;;;;;;;;21.66;60.04;101020.38;4958848;29;19914;-81
2022/05/15 05:26:47;;;;;;;;;;;;;;;21.66;60.45;101016.81;4949938;29;19914;-83
2022/05/15 05:29:32;;;;;;;;;;;;;;;21.66;60.65;101022.34;4948220;29;19914;-83
2022/05/15 05:32:17;;;;;;;;;;;;;;;21.66;60.52;101019.56;4950389;29;19919;-81
2022/05/15 05:35:01;;;;;;;;;;;;;;;21.74;60.52;101016.47;4947026;29;19919;-81
2022/05/15 05:37:46;;;;;;;;;;;;;;;21.84;60.50;101028.03;4945986;29;19915;-81
2022/05/15 05:40:31;;;;;;;;;;;;;;;21.88;60.85;101021.34;4948135;29;19915;-82
2022/05/15 05:43:16;;;;;;;;;;;;;;;21.94;61.00;101024.56;4954840;28;19915;-80
2022/05/15 05:46:00;;;;;;;;;;;;;;;22.01;60.97;101021.84;4944690;29;19915;-82
2022/05/15 05:48:46;;;;;;;;;;;;;;;22.05;61.04;101017.13;4938121;29;19914;-82
2022/05/15 05:51:30;;;;;;;;;;;;;;;22.12;60.41;101020.75;4944085;29;19919;-82
2022/05/15 05:54:15;;;;;;;;;;;;;;;22.21;59.78;101020.38;4944965;29;19915;-83
2022/05/15 05:57:00;;;;;;;;;;;;;;;22.32;58.74;101017.69;4940919;29;19914;-81
2022/05/15 05:59:44;;;;;;;;;;;;;;;22.38;57.60;101021.69;4947375;29;19914;-81
2022/05/15 06:02:29;;;;;;;;;;;;;;;22.53;57.43;101024.13;4938474;29;19914;-79
2022/05/15 06:05:13;;;;;;;;;;;;;;;22.58;58.02;101026.53;4937832;29;20306;-81
2022/05/15 06:07:58;;;;;;;;;;;;;;;22.65;57.31;101025.78;4938781;29;19915;-78
2022/05/15 06:10:42;;;;;;;;;;;;;;;22.70;56.63;101030.97;4937274;29;19915;-79
2022/05/15 06:13:27;;;;;;;;;;;;;;;22.79;56.77;101036.97;4940315;29;19918;-79
2022/05/15 06:16:13;;;;;;;;;;;;;;;22.84;57.18;101033.81;4935161;29;19915;-78
2022/05/15 06:18:58;;;;;;;;;;;;;;;22.91;56.68;101028.25;4936691;29;20394;-79
2022/05/15 06:21:44;;;;;;;;;;;;;;;22.91;56.75;101028.25;4934881;29;19914;-79
2022/05/15 06:24:28;;;;;;;;;;;;;;;22.93;57.25;101033.44;4927757;29;19914;-78
2022/05/15 06:27:13;;;;;;;;;;;;;;;23.00;57.09;101034.25;4926064;29;20549;-79
2022/05/15 06:29:58;;;;;;;;;;;;;;;23.06;57.06;101025.56;4930225;29;20397;-79
2022/05/15 06:32:43;;;;;;;;;;;;;;;23.13;56.66;101031.09;4928461;29;19922;-78
2022/05/15 06:35:27;;;;;;;;;;;;;;;23.11;56.78;101034.25;4930955;29;19922;-81
2022/05/15 06:38:12;;;;;;;;;;;;;;;23.19;56.59;101035.88;4927691;29;19923;-80
2022/05/15 06:40:57;;;;;;;;;;;;;;;23.21;57.21;101038.28;4921290;29;19915;-80
2022/05/15 06:43:41;;;;;;;;;;;;;;;23.25;56.97;101041.84;4924196;29;20382;-78
2022/05/15 06:46:27;;;;;;;;;;;;;;;23.26;56.70;101046.22;4920741;29;19915;-78
2022/05/15 06:49:12;;;;;;;;;;;;;;;23.32;56.40;101044.63;4927992;29;19918;-77
2022/05/15 06:51:56;;;;;;;;;;;;;;;23.35;56.13;101043.84;4941036;29;19919;-81
2022/05/15 06:54:41;;;;;;;;;;;;;;;23.43;56.09;101048.22;4943861;28;19922;-78
2022/05/15 06:57:28;;;;;;;;;;;;;;;23.47;55.05;101048.28;4951575;28;20373;-78
2022/05/15 07:00:16;;;;;;;;;;;;;;;23.51;55.00;101047.09;4940735;28;19914;-79
2022/05/15 07:03:00;;;;;;;;;;;;;;;23.56;55.17;101041.13;4938075;28;19914;-77
2022/05/15 07:05:45;;;;;;;;;;;;;;;23.57;54.96;101048.25;4947984;28;19940;-79
2022/05/15 07:08:31;;;;;;;;;;;;;;;23.61;55.18;101046.28;4956749;29;19914;-77
2022/05/15 07:11:16;;;;;;;;;;;;;;;23.67;54.72;101044.69;4938554;29;19915;-79
2022/05/15 07:14:00;;;;;;;;;;;;;;;23.72;54.40;101046.31;4929871;29;19919;-79
2022/05/15 07:16:45;;;;;;;;;;;;;;;23.78;54.01;101042.72;4940900;29;19915;-78
2022/05/15 07:19:29;;;;;;;;;;;;;;;23.85;53.67;101048.28;4937362;29;19915;-78
2022/05/15 07:22:14;;;;;;;;;;;;;;;23.85;53.95;101047.47;4937888;29;19915;-80
2022/05/15 07:24:59;;;;;;;;;;;;;;;23.87;53.72;101051.44;4940796;29;20378;-78
2022/05/15 07:27:43;;;;;;;;;;;;;;;23.94;53.40;101052.63;4939734;29;20382;-79
2022/05/15 07:30:28;;;;;;;;;;;;;;;24.03;53.34;101048.25;4937462;29;20468;-79
2022/05/15 07:33:13;;;;;;;;;;;;;;;24.06;52.93;101052.22;4927311;29;19919;-78
2022/05/15 07:35:57;;;;;;;;;;;;;;;24.08;52.67;101041.50;4949045;28;19914;-80
2022/05/15 07:38:42;;;;;;;;;;;;;;;24.10;52.73;101044.69;4938107;29;19914;-78
2022/05/15 07:41:26;;;;;;;;;;;;;;;24.16;52.74;101046.66;4928560;29;19918;-78
2022/05/15 07:44:10;;;;;;;;;;;;;;;24.22;52.83;101049.88;4937007;29;19922;-79
2022/05/15 07:46:55;;;;;;;;;;;;;;;24.36;51.80;101041.50;4939360;28;20301;-78
2022/05/15 07:49:40;;;;;;;;;;;;;;;24.42;50.65;101048.22;4944561;29;19915;-77
2022/05/15 07:52:25;;;;;;;;;;;;;;;24.54;50.29;101044.19;4940773;29;19918;-79
2022/05/15 07:55:10;;;;;;;;;;;;;;;24.66;50.01;101041.78;4929263;29;19914;-79
2022/05/15 07:57:54;;;;;;;;;;;;;;;24.67;49.99;101048.16;4930780;29;19915;-79
2022/05/15 08:00:39;;;;;;;;;;;;;;;24.80;49.17;101037.34;4950595;28;19914;-78
2022/05/15 08:03:24;;;;;;;;;;;;;;;24.84;48.92;101043.72;4943183;29;19923;-79
2022/05/15 08:09:12;;;;;;;;;;;;;;;24.80;49.81;101040.13;4947921;28;19915;-77
2022/05/15 08:11:56;;;;;;;;;;;;;;;24.75;48.96;101038.56;4941545;28;19918;-77
2022/05/15 08:14:43;;;;;;;;;;;;;;;24.80;49.32;101046.50;4926594;29;19939;-80
2022/05/15 08:17:27;;;;;;;;;;;;;;;24.74;49.41;101042.53;4935932;28;19910;-80
2022/05/15 08:23:33;;;;;;;;;;;;;;;24.82;49.45;101038.53;4939725;28;19915;-79
2022/05/15 08:26:19;;;;;;;;;;;;;;;24.88;49.06;101042.53;4957461;28;19918;-77
2022/05/15 08:29:04;;;;;;;;;;;;;;;24.93;48.85;101030.97;4917265;29;19915;-76
2022/05/15 08:31:48;;;;;;;;;;;;;;;24.96;49.17;101029.34;4918492;29;19915;-77
2022/05/15 08:34:33;;;;;;;;;;;;;;;25.02;48.81;101031.31;4936856;29;19915;-76
2022/05/15 08:37:18;;;;;;;;;;;;;;;25.10;48.86;101034.84;4930847;29;19919;-77
2022/05/15 08:40:03;;;;;;;;;;;;;;;25.12;48.61;101032.44;4928910;29;19915;-76
2022/05/15 08:42:54;;;;;;;;;;;;;;;25.16;48.86;101027.66;4935536;29;19914;-76
2022/05/15 08:45:42;;;;;;;;;;;;;;;25.42;47.99;101027.09;4935591;29;20390;-77
2022/05/15 08:48:28;;;;;;;;;;;;;;;25.26;48.13;101014.84;4939560;29;19915;-77
2022/05/15 08:51:13;;;;;;;;;;;;;;;25.34;48.64;101027.56;4934074;29;19918;-78
2022/05/15 08:53:59;;;;;;;;;;;;;;;25.41;48.06;101028.28;4934540;28;19919;-78
2022/05/15 08:56:46;;;;;;;;;;;;;;;25.67;46.75;101028.91;4924200;29;19923;-77
2022/05/15 08:59:33;;;;;;;;;;;;;;;25.60;47.10;101031.78;4924274;29;19923;-77
2022/05/15 09:02:17;;;;;;;;;;;;;;;25.62;47.40;101035.72;4965152;23;19915;-86
2022/05/15 09:05:02;;;;;;;;;;;;;;;25.72;47.85;101028.47;4947602;29;19922;-84
2022/05/15 09:07:47;;;;;;;;;;;;;;;25.80;46.91;101030.78;4951347;28;19918;-84
2022/05/15 09:10:47;;;;;;;;;;;;;;;25.77;47.23;101039.16;4949642;29;19919;-85
2022/05/15 09:13:51;;;;;;;;;;;;;;;25.72;47.06;101039.63;4959869;28;20305;-85
2022/05/15 09:16:37;;;;;;;;;;;;;;;25.77;46.74;101030.81;4942064;29;19915;-85
2022/05/15 09:19:23;;;;;;;;;;;;;;;25.86;46.72;101028.34;4962012;28;19914;-85
2022/05/15 09:22:09;;;;;;;;;;;;;;;25.97;46.54;101032.63;4963106;28;19917;-85
2022/05/15 09:24:53;;;;;;;;;;;;;;;25.98;46.25;101037.00;4975482;28;20317;-84
2022/05/15 09:27:38;;;;;;;;;;;;;;;26.00;46.29;101033.81;4949703;28;20390;-85
2022/05/15 09:30:22;;;;;;;;;;;;;;;25.94;46.54;101041.81;4960038;28;19914;-85
2022/05/15 09:33:21;;;;;;;;;;;;;;;25.89;46.55;101047.03;4963416;28;19922;-84
2022/05/15 09:36:23;;;;;;;;;;;;;;;25.92;46.35;101043.41;4966335;28;19914;-86
2022/05/15 09:39:20;;;;;;;;;;;;;;;25.91;46.69;101042.63;4962825;28;19915;-87
2022/05/15 09:45:17;;;;;;;;;;;;;;;26.09;46.26;101042.47;4967505;28;19914;-85
2022/05/15 09:48:04;;;;;;;;;;;;;;;25.87;46.70;101041.06;4962469;28;19914;-86
2022/05/15 09:50:49;;;;;;;;;;;;;;;25.81;47.17;101042.72;4967161;29;19914;-85
2022/05/15 09:53:43;;;;;;;;;;;;;;;25.93;46.64;101039.44;4948519;28;19919;-85
2022/05/15 09:56:30;;;;;;;;;;;;;;;25.88;46.99;101037.09;4985737;28;19914;-86
2022/05/15 09:59:16;;;;;;;;;;;;;;;25.90;46.73;101040.28;4962475;29;19915;-84
2022/05/15 10:02:00;;;;;;;;;;;;;;;25.94;46.60;101041.81;4966855;29;19915;-84
2022/05/15 10:04:47;;;;;;;;;;;;;;;26.03;46.61;101038.53;4946797;29;19915;-85
2022/05/15 10:07:34;;;;;;;;;;;;;;;26.19;45.69;101038.78;4972499;28;19914;-85
2022/05/15 10:10:23;;;;;;;;;;;;;;;26.50;45.41;101030.50;4972761;28;19918;-85
2022/05/15 10:13:11;;;;;;;;;;;;;;;26.82;44.54;101025.31;4963603;28;19918;-86
2022/05/15 10:16:02;;;;;;;;;;;;;;;26.94;43.92;101018.41;4959814;28;19918;-86
2022/05/15 10:18:56;;;;;;;;;;;;;;;26.92;44.39;101016.03;4950047;28;19922;-86
2022/05/15 10:21:50;;;;;;;;;;;;;;;26.90;43.94;101018.47;4977630;28;19917;-85
2022/05/15 10:24:38;;;;;;;;;;;;;;;26.86;44.27;101017.69;4966588;28;19918;-86
2022/05/15 10:27:26;;;;;;;;;;;;;;;27.03;43.68;101025.06;4967346;29;19915;-85
2022/05/15 10:30:18;;;;;;;;;;;;;;;26.84;43.90;101020.13;4971512;28;19915;-84
2022/05/15 10:33:11;;;;;;;;;;;;;;;26.88;43.75;101020.09;4968577;28;19918;-84
2022/05/15 10:35:56;;;;;;;;;;;;;;;26.71;44.50;101013.53;4963640;29;19914;-84
2022/05/15 10:38:53;;;;;;;;;;;;;;;26.59;44.49;101020.44;4945681;29;19915;-84
2022/05/15 10:41:42;;;;;;;;;;;;;;;26.55;45.09;101014.13;4969703;28;20491;-84
2022/05/15 10:44:27;;;;;;;;;;;;;;;26.46;45.03;101013.81;4962652;28;20058;-84
2022/05/15 10:47:15;;;;;;;;;;;;;;;26.47;45.07;101011.81;4950300;29;19914;-84
2022/05/15 10:50:38;;;;;;;;;;;;;;;26.77;44.84;101009.03;4964700;28;19915;-84
2022/05/15 11:00:15;;;;;;;;;;;;;;;26.75;45.89;100997.50;4955951;29;19915;-85
2022/05/15 11:03:18;;;;;;;;;;;;;;;27.10;44.14;100994.25;4962161;28;19915;-84
2022/05/15 11:06:09;;;;;;;;;;;;;;;26.93;44.40;100989.72;4969931;28;19915;-85
2022/05/15 11:08:57;;;;;;;;;;;;;;;26.89;44.25;100980.59;4957820;28;19922;-85
2022/05/15 11:11:52;;;;;;;;;;;;;;;27.10;44.76;100993.47;4956277;28;19915;-84
2022/05/15 11:14:36;;;;;;;;;;;;;;;27.13;44.36;100990.59;4947936;29;19918;-85
2022/05/15 11:17:29;;;;;;;;;;;;;;;27.01;44.56;100991.22;4963904;28;19914;-84
2022/05/15 11:20:17;;;;;;;;;;;;;;;26.89;45.24;100980.59;4959508;29;19914;-84
2022/05/15 11:23:20;;;;;;;;;;;;;;;26.93;44.96;100991.72;4955795;29;19914;-85
2022/05/15 11:26:11;;;;;;;;;;;;;;;27.01;44.66;100984.81;4962491;28;19915;-84
2022/05/15 11:28:59;;;;;;;;;;;;;;;27.03;44.28;100993.56;4955722;29;20313;-84
2022/05/15 11:31:48;;;;;;;;;;;;;;;26.96;43.81;100980.50;4958364;28;19915;-83
2022/05/15 11:35:08;;;;;;;;;;;;;;;26.80;44.74;100988.69;4958815;28;19918;-84
2022/05/15 11:38:01;;;;;;;;;;;;;;;26.73;45.01;100985.97;4966767;28;19922;-84
2022/05/15 11:40:50;;;;;;;;;;;;;;;27.00;44.62;100977.66;4963153;28;19936;-84
2022/05/15 11:43:36;;;;;;;;;;;;;;;27.03;44.68;100972.00;4961923;28;19914;-85
2022/05/15 11:46:20;;;;;;;;;;;;;;;27.05;44.48;100972.41;4963372;28;19915;-85
2022/05/15 11:49:11;;;;;;;;;;;;;;;26.98;44.45;100972.50;4953359;28;19914;-84
2022/05/15 11:52:16;;;;;;;;;;;;;;;27.00;44.77;100972.88;4950757;29;19915;-83
2022/05/15 11:55:25;;;;;;;;;;;;;;;27.00;44.28;100966.50;4964521;28;19918;-83
2022/05/15 11:58:10;;;;;;;;;;;;;;;26.88;44.56;100959.47;4949388;29;19914;-84
2022/05/15 12:01:17;;;;;;;;;;;;;;;26.91;44.25;100961.44;4961678;28;19914;-84
2022/05/15 12:04:07;;;;;;;;;;;;;;;26.87;44.44;100957.88;4950931;29;20112;-83
2022/05/15 12:06:55;;;;;;;;;;;;;;;26.85;45.27;100956.72;4966996;28;21250;-83
2022/05/15 12:09:40;;;;;;;;;;;;;;;26.82;45.41;100947.16;4958037;28;19915;-82
2022/05/15 12:12:31;;;;;;;;;;;;;;;27.05;44.12;100952.84;4954906;28;21622;-83
2022/05/15 12:15:19;;;;;;;;;;;;;;;27.15;44.04;100945.50;4947832;28;19915;-84
2022/05/15 12:18:24;;;;;;;;;;;;;;;27.19;44.35;100941.44;4956624;28;19950;-84
2022/05/15 12:21:13;;;;;;;;;;;;;;;27.34;43.26;100930.03;4965308;28;19918;-84
2022/05/15 12:27:09;;;;;;;;;;;;;;;27.17;43.95;100929.16;4969857;28;20374;-84
2022/05/15 12:30:13;;;;;;;;;;;;;;;27.14;44.22;100919.59;4958932;28;19914;-84
2022/05/15 12:33:03;;;;;;;;;;;;;;;27.19;44.00;100918.31;4963059;28;19922;-83
2022/05/15 12:35:48;;;;;;;;;;;;;;;27.02;44.38;100914.59;4958623;28;19922;-85
2022/05/15 12:38:34;;;;;;;;;;;;;;;26.95;44.11;100892.38;4958616;28;19915;-83
2022/05/15 12:41:24;;;;;;;;;;;;;;;27.00;44.37;100908.66;4964705;28;19918;-83
2022/05/15 12:44:11;;;;;;;;;;;;;;;27.11;44.09;100912.06;4968812;28;20370;-83
2022/05/15 12:46:57;;;;;;;;;;;;;;;27.01;44.22;100899.06;4962312;28;19914;-87
2022/05/15 12:49:46;;;;;;;;;;;;;;;27.03;43.88;100905.00;4965041;28;19914;-85
2022/05/15 12:52:33;;;;;;;;;;;;;;;27.16;43.53;100896.84;4942517;29;19922;-85
2022/05/15 12:55:29;;;;;;;;;;;;;;;27.45;42.21;100900.72;4976721;28;19918;-84
2022/05/15 12:58:27;;;;;;;;;;;;;;;27.77;41.68;100902.97;4971351;28;19914;-84
2022/05/15 13:01:12;;;;;;;;;;;;;;;27.87;41.22;100878.81;4969125;28;19914;-84
2022/05/15 13:03:58;;;;;;;;;;;;;;;27.96;41.65;100893.78;4957979;28;19915;-84
2022/05/15 13:06:50;;;;;;;;;;;;;;;28.08;41.26;100889.56;4965995;28;19914;-84
2022/05/15 13:09:34;;;;;;;;;;;;;;;27.93;41.46;100888.28;4966762;28;19914;-84
2022/05/15 13:12:19;;;;;;;;;;;;;;;28.04;41.34;100878.44;4965997;28;19921;-84
2022/05/15 13:15:03;;;;;;;;;;;;;;;27.91;41.46;100880.31;4966377;28;19919;-84
2022/05/15 13:17:49;;;;;;;;;;;;;;;27.87;41.89;100882.41;4967006;28;19922;-85
2022/05/15 13:20:36;;;;;;;;;;;;;;;28.07;40.59;100883.19;4956335;28;19914;-84
2022/05/15 13:23:23;;;;;;;;;;;;;;;28.23;40.46;100874.09;4962336;28;19914;-84
2022/05/15 13:26:10;;;;;;;;;;;;;;;28.29;40.80;100866.75;4959292;28;19913;-83
2022/05/15 13:28:57;;;;;;;;;;;;;;;28.17;41.13;100863.84;4951769;28;19913;-84
2022/05/15 13:31:42;;;;;;;;;;;;;;;27.91;41.39;100871.94;4951743;28;19922;-85
2022/05/15 13:34:28;;;;;;;;;;;;;;;27.74;42.01;100867.47;4967530;28;19918;-84
2022/05/15 13:37:32;;;;;;;;;;;;;;;27.36;42.32;100866.19;4964957;28;19914;-84
2022/05/15 13:43:32;;;;;;;;;;;;;;;27.74;40.55;100859.09;4979016;28;20393;-84
2022/05/15 13:46:24;;;;;;;;;;;;;;;27.66;41.09;100857.66;4968389;28;19914;-84
2022/05/15 13:49:12;;;;;;;;;;;;;;;27.63;42.10;100864.13;4969013;28;20281;-85
2022/05/15 13:51:57;;;;;;;;;;;;;;;27.52;42.23;100855.13;4973972;28;19914;-85
2022/05/15 13:54:43;;;;;;;;;;;;;;;27.38;42.64;100847.00;4962145;28;19919;-83
2022/05/15 13:57:30;;;;;;;;;;;;;;;27.37;42.35;100845.41;4969493;28;19918;-84
2022/05/15 14:00:14;;;;;;;;;;;;;;;27.35;42.60;100845.84;4948065;29;19914;-83
2022/05/15 14:03:04;;;;;;;;;;;;;;;27.42;42.32;100839.34;4954975;28;19918;-84
2022/05/15 14:06:08;;;;;;;;;;;;;;;27.33;42.55;100844.69;4964920;28;19915;-82
2022/05/15 14:08:54;;;;;;;;;;;;;;;27.34;42.34;100843.44;4961671;28;19922;-84
2022/05/15 14:11:54;;;;;;;;;;;;;;;27.51;42.13;100840.38;4948315;28;19915;-83
2022/05/15 14:14:44;;;;;;;;;;;;;;;27.39;42.38;100842.97;4949781;29;19923;-83
2022/05/15 14:17:30;;;;;;;;;;;;;;;27.19;42.84;100835.34;4956117;28;19918;-84
2022/05/15 14:20:24;;;;;;;;;;;;;;;27.13;43.43;100833.44;4963546;28;20386;-85
2022/05/15 14:23:10;;;;;;;;;;;;;;;26.96;43.78;100829.78;4945666;29;20398;-84
2022/05/15 14:25:56;;;;;;;;;;;;;;;26.93;44.06;100835.38;4987816;28;19914;-84
2022/05/15 14:28:41;;;;;;;;;;;;;;;26.93;43.94;100827.81;4963437;28;19914;-82
2022/05/15 14:31:29;;;;;;;;;;;;;;;26.86;43.79;100832.69;4980042;28;19913;-84
2022/05/15 14:34:14;;;;;;;;;;;;;;;26.94;42.24;100834.97;4978006;28;19918;-83
2022/05/15 14:36:58;;;;;;;;;;;;;;;27.09;42.28;100839.09;4967515;28;19913;-84
2022/05/15 14:39:43;;;;;;;;;;;;;;;27.09;42.38;100832.72;4972060;28;19990;-83
2022/05/15 14:42:29;;;;;;;;;;;;;;;27.07;42.58;100833.16;4971132;28;19913;-82